sensor_id;sensor_type;location;lat;lon;timestamp;pressure;altitude;pressure_sealevel;temperature;humidity
5284;BME280;15377;48.540;9.268;2023-06-19T00:01:14;97110.53;;;22.47;100.00
5284;BME280;15377;48.540;9.268;2023-06-19T00:03:39;97097.06;;;22.46;100.00
5284;BME280;15377;48.540;9.268;2023-06-19T00:06:05;97109.78;;;22.47;100.00
5284;BME280;15377;48.540;9.268;2023-06-19T00:08:31;97114.03;;;22.40;100.00
5284;BME280;15377;48.540;9.268;2023-06-19T00:10:56;97108.97;;;22.31;100.00
5284;BME280;15377;48.540;9.268;2023-06-19T00:13:22;97110.81;;;22.29;100.00
5284;BME280;15377;48.540;9.268;2023-06-19T00:15:47;97120.53;;;22.28;100.00
5284;BME280;15377;48.540;9.268;2023-06-19T00:18:13;97110.41;;;22.17;100.00
5284;BME280;15377;48.540;9.268;2023-06-19T00:20:38;97101.66;;;22.21;100.00
5284;BME280;15377;48.540;9.268;2023-06-19T00:23:05;97115.88;;;22.30;100.00
5284;BME280;15377;48.540;9.268;2023-06-19T00:25:31;97092.16;;;22.24;100.00
5284;BME280;15377;48.540;9.268;2023-06-19T00:27:56;97112.72;;;22.34;100.00
5284;BME280;15377;48.540;9.268;2023-06-19T00:30:22;97109.72;;;22.32;100.00
5284;BME280;15377;48.540;9.268;2023-06-19T00:32:47;97111.22;;;22.33;100.00
5284;BME280;15377;48.540;9.268;2023-06-19T00:35:15;97108.25;;;22.31;100.00
5284;BME280;15377;48.540;9.268;2023-06-19T00:37:41;97120.38;;;22.33;100.00
5284;BME280;15377;48.540;9.268;2023-06-19T00:40:31;97125.00;;;22.16;100.00
5284;BME280;15377;48.540;9.268;2023-06-19T00:42:57;97133.16;;;21.99;100.00
5284;BME280;15377;48.540;9.268;2023-06-19T00:45:25;97125.25;;;21.82;100.00
5284;BME280;15377;48.540;9.268;2023-06-19T00:47:52;97120.97;;;21.53;100.00
5284;BME280;15377;48.540;9.268;2023-06-19T00:50:18;97117.94;;;21.44;100.00
5284;BME280;15377;48.540;9.268;2023-06-19T00:52:43;97122.53;;;21.34;100.00
5284;BME280;15377;48.540;9.268;2023-06-19T00:55:09;97133.69;;;21.26;100.00
5284;BME280;15377;48.540;9.268;2023-06-19T00:57:35;97129.81;;;21.09;100.00
5284;BME280;15377;48.540;9.268;2023-06-19T01:00:01;97144.91;;;21.06;100.00
5284;BME280;15377;48.540;9.268;2023-06-19T01:02:30;97139.59;;;20.95;100.00
5284;BME280;15377;48.540;9.268;2023-06-19T01:04:56;97139.66;;;21.02;100.00
5284;BME280;15377;48.540;9.268;2023-06-19T01:07:47;97145.31;;;21.10;100.00
5284;BME280;15377;48.540;9.268;2023-06-19T01:10:18;97141.75;;;21.30;100.00
5284;BME280;15377;48.540;9.268;2023-06-19T01:12:52;97140.69;;;21.40;100.00
5284;BME280;15377;48.540;9.268;2023-06-19T01:15:22;97142.19;;;21.41;100.00
5284;BME280;15377;48.540;9.268;2023-06-19T01:17:47;97145.22;;;21.51;100.00
5284;BME280;15377;48.540;9.268;2023-06-19T01:20:13;97151.22;;;21.55;100.00
5284;BME280;15377;48.540;9.268;2023-06-19T01:22:40;97155.53;;;21.56;100.00
5284;BME280;15377;48.540;9.268;2023-06-19T01:25:08;97151.59;;;21.59;100.00
5284;BME280;15377;48.540;9.268;2023-06-19T01:27:34;97149.16;;;21.55;100.00
5284;BME280;15377;48.540;9.268;2023-06-19T01:30:02;97157.63;;;21.63;100.00
5284;BME280;15377;48.540;9.268;2023-06-19T01:32:40;97181.13;;;21.60;100.00
5284;BME280;15377;48.540;9.268;2023-06-19T01:35:08;97195.22;;;21.47;100.00
5284;BME280;15377;48.540;9.268;2023-06-19T01:37:36;97209.31;;;21.34;100.00
5284;BME280;15377;48.540;9.268;2023-06-19T01:40:04;97192.81;;;21.23;100.00
5284;BME280;15377;48.540;9.268;2023-06-19T01:42:32;97203.59;;;21.19;100.00
5284;BME280;15377;48.540;9.268;2023-06-19T01:44:59;97218.97;;;21.25;100.00
5284;BME280;15377;48.540;9.268;2023-06-19T01:47:25;97229.72;;;21.21;100.00
5284;BME280;15377;48.540;9.268;2023-06-19T01:49:50;97228.50;;;21.30;100.00
5284;BME280;15377;48.540;9.268;2023-06-19T01:52:16;97239.59;;;21.43;100.00
5284;BME280;15377;48.540;9.268;2023-06-19T01:54:41;97235.78;;;21.53;100.00
5284;BME280;15377;48.540;9.268;2023-06-19T01:57:07;97237.50;;;21.56;100.00
5284;BME280;15377;48.540;9.268;2023-06-19T01:59:33;97254.97;;;21.70;100.00
5284;BME280;15377;48.540;9.268;2023-06-19T02:01:58;97254.22;;;21.69;100.00
5284;BME280;15377;48.540;9.268;2023-06-19T02:04:23;97253.31;;;21.74;100.00
5284;BME280;15377;48.540;9.268;2023-06-19T02:06:49;97240.00;;;21.67;100.00
5284;BME280;15377;48.540;9.268;2023-06-19T02:09:14;97250.91;;;21.78;100.00
5284;BME280;15377;48.540;9.268;2023-06-19T02:11:39;97243.97;;;21.72;100.00
5284;BME280;15377;48.540;9.268;2023-06-19T02:14:05;97246.41;;;21.75;100.00
5284;BME280;15377;48.540;9.268;2023-06-19T02:16:30;97245.47;;;21.73;100.00
5284;BME280;15377;48.540;9.268;2023-06-19T02:18:55;97244.38;;;21.76;100.00
5284;BME280;15377;48.540;9.268;2023-06-19T02:21:22;97247.97;;;21.84;100.00
5284;BME280;15377;48.540;9.268;2023-06-19T02:23:47;97236.91;;;21.78;100.00
5284;BME280;15377;48.540;9.268;2023-06-19T02:26:12;97239.56;;;21.84;100.00
5284;BME280;15377;48.540;9.268;2023-06-19T02:28:38;97230.94;;;21.82;100.00
5284;BME280;15377;48.540;9.268;2023-06-19T02:31:03;97237.69;;;21.86;100.00
5284;BME280;15377;48.540;9.268;2023-06-19T02:33:28;97226.84;;;21.83;100.00
5284;BME280;15377;48.540;9.268;2023-06-19T02:35:55;97219.34;;;21.78;100.00
5284;BME280;15377;48.540;9.268;2023-06-19T02:38:26;97232.44;;;21.83;100.00
5284;BME280;15377;48.540;9.268;2023-06-19T02:40:52;97229.44;;;21.81;100.00
5284;BME280;15377;48.540;9.268;2023-06-19T02:43:17;97236.78;;;21.84;100.00
5284;BME280;15377;48.540;9.268;2023-06-19T02:45:42;97233.97;;;21.84;100.00
5284;BME280;15377;48.540;9.268;2023-06-19T02:48:08;97243.09;;;21.84;100.00
5284;BME280;15377;48.540;9.268;2023-06-19T02:50:33;97240.66;;;21.81;100.00
5284;BME280;15377;48.540;9.268;2023-06-19T02:52:59;97227.56;;;21.76;100.00
5284;BME280;15377;48.540;9.268;2023-06-19T02:55:24;97230.56;;;21.78;100.00
5284;BME280;15377;48.540;9.268;2023-06-19T02:57:50;97227.16;;;21.72;100.00
5284;BME280;15377;48.540;9.268;2023-06-19T03:00:15;97248.06;;;21.71;100.00
5284;BME280;15377;48.540;9.268;2023-06-19T03:02:40;97244.25;;;21.61;100.00
5284;BME280;15377;48.540;9.268;2023-06-19T03:05:09;97240.13;;;21.62;100.00
5284;BME280;15377;48.540;9.268;2023-06-19T03:07:34;97243.81;;;21.57;100.00
5284;BME280;15377;48.540;9.268;2023-06-19T03:10:00;97255.44;;;21.61;100.00
5284;BME280;15377;48.540;9.268;2023-06-19T03:12:25;97256.63;;;21.65;100.00
5284;BME280;15377;48.540;9.268;2023-06-19T03:14:51;97250.91;;;21.58;100.00
5284;BME280;15377;48.540;9.268;2023-06-19T03:17:16;97259.94;;;21.64;100.00
5284;BME280;15377;48.540;9.268;2023-06-19T03:19:41;97268.16;;;21.62;100.00
5284;BME280;15377;48.540;9.268;2023-06-19T03:22:07;97265.88;;;21.60;100.00
5284;BME280;15377;48.540;9.268;2023-06-19T03:24:32;97271.84;;;21.57;100.00
5284;BME280;15377;48.540;9.268;2023-06-19T03:26:57;97266.22;;;21.57;100.00
5284;BME280;15377;48.540;9.268;2023-06-19T03:29:23;97266.22;;;21.57;100.00
5284;BME280;15377;48.540;9.268;2023-06-19T03:31:48;97260.63;;;21.57;100.00
5284;BME280;15377;48.540;9.268;2023-06-19T03:34:13;97256.53;;;21.58;100.00
5284;BME280;15377;48.540;9.268;2023-06-19T03:36:39;97271.78;;;21.70;100.00
5284;BME280;15377;48.540;9.268;2023-06-19T03:39:04;97259.06;;;21.69;100.00
5284;BME280;15377;48.540;9.268;2023-06-19T03:41:29;97261.72;;;21.74;100.00
5284;BME280;15377;48.540;9.268;2023-06-19T03:43:55;97245.75;;;21.62;100.00
5284;BME280;15377;48.540;9.268;2023-06-19T03:46:20;97271.09;;;21.77;100.00
5284;BME280;15377;48.540;9.268;2023-06-19T03:48:45;97279.50;;;21.77;100.00
5284;BME280;15377;48.540;9.268;2023-06-19T03:51:11;97277.22;;;21.75;100.00
5284;BME280;15377;48.540;9.268;2023-06-19T03:53:36;97244.38;;;21.55;100.00
5284;BME280;15377;48.540;9.268;2023-06-19T03:56:02;97279.50;;;21.77;100.00
5284;BME280;15377;48.540;9.268;2023-06-19T03:58:27;97269.78;;;21.78;100.00
5284;BME280;15377;48.540;9.268;2023-06-19T04:00:52;97278.06;;;21.91;100.00
5284;BME280;15377;48.540;9.268;2023-06-19T04:03:18;97288.38;;;21.96;100.00
5284;BME280;15377;48.540;9.268;2023-06-19T04:05:43;97288.22;;;22.01;100.00
5284;BME280;15377;48.540;9.268;2023-06-19T04:08:08;97283.38;;;22.02;100.00
5284;BME280;15377;48.540;9.268;2023-06-19T04:10:34;97273.63;;;21.95;100.00
5284;BME280;15377;48.540;9.268;2023-06-19T04:12:59;97286.94;;;22.02;100.00
5284;BME280;15377;48.540;9.268;2023-06-19T04:15:24;97280.78;;;22.04;100.00
5284;BME280;15377;48.540;9.268;2023-06-19T04:17:50;97284.28;;;21.97;100.00
5284;BME280;15377;48.540;9.268;2023-06-19T04:20:15;97277.38;;;21.98;100.00
5284;BME280;15377;48.540;9.268;2023-06-19T04:22:41;97276.66;;;22.05;100.00
5284;BME280;15377;48.540;9.268;2023-06-19T04:25:07;97270.09;;;22.02;100.00
5284;BME280;15377;48.540;9.268;2023-06-19T04:27:33;97277.63;;;22.07;100.00
5284;BME280;15377;48.540;9.268;2023-06-19T04:29:58;97275.59;;;22.08;100.00
5284;BME280;15377;48.540;9.268;2023-06-19T04:32:23;97270.88;;;22.03;100.00
5284;BME280;15377;48.540;9.268;2023-06-19T04:34:49;97222.09;;;21.70;100.00
5284;BME280;15377;48.540;9.268;2023-06-19T04:37:14;97271.06;;;22.05;100.00
5284;BME280;15377;48.540;9.268;2023-06-19T04:39:44;97270.69;;;22.01;100.00
5284;BME280;15377;48.540;9.268;2023-06-19T04:42:10;97279.69;;;22.07;100.00
5284;BME280;15377;48.540;9.268;2023-06-19T04:44:35;97272.72;;;22.00;100.00
5284;BME280;15377;48.540;9.268;2023-06-19T04:47:00;97290.06;;;21.99;100.00
5284;BME280;15377;48.540;9.268;2023-06-19T04:49:29;97284.59;;;21.86;100.00
5284;BME280;15377;48.540;9.268;2023-06-19T04:51:57;97289.13;;;21.68;100.00
5284;BME280;15377;48.540;9.268;2023-06-19T04:54:22;97278.78;;;21.63;100.00
5284;BME280;15377;48.540;9.268;2023-06-19T04:56:48;97281.88;;;21.52;100.00
5284;BME280;15377;48.540;9.268;2023-06-19T04:59:13;97258.19;;;21.33;100.00
5284;BME280;15377;48.540;9.268;2023-06-19T05:01:43;97279.63;;;21.51;100.00
5284;BME280;15377;48.540;9.268;2023-06-19T05:04:08;97292.34;;;21.52;100.00
5284;BME280;15377;48.540;9.268;2023-06-19T05:06:36;97285.38;;;21.45;100.00
5284;BME280;15377;48.540;9.268;2023-06-19T05:09:01;97289.75;;;21.54;100.00
5284;BME280;15377;48.540;9.268;2023-06-19T05:11:26;97299.09;;;21.56;100.00
5284;BME280;15377;48.540;9.268;2023-06-19T05:13:52;97300.59;;;21.57;100.00
5284;BME280;15377;48.540;9.268;2023-06-19T05:16:17;97301.34;;;21.58;100.00
5284;BME280;15377;48.540;9.268;2023-06-19T05:18:44;97304.00;;;21.63;100.00
5284;BME280;15377;48.540;9.268;2023-06-19T05:21:10;97296.56;;;21.66;100.00
5284;BME280;15377;48.540;9.268;2023-06-19T05:23:35;97268.75;;;21.47;100.00
5284;BME280;15377;48.540;9.268;2023-06-19T05:26:01;97292.19;;;21.78;100.00
5284;BME280;15377;48.540;9.268;2023-06-19T05:28:26;97298.59;;;21.86;100.00
5284;BME280;15377;48.540;9.268;2023-06-19T05:30:51;97288.91;;;21.87;100.00
5284;BME280;15377;48.540;9.268;2023-06-19T05:33:17;97292.31;;;21.93;100.00
5284;BME280;15377;48.540;9.268;2023-06-19T05:35:42;97294.59;;;22.02;100.00
5284;BME280;15377;48.540;9.268;2023-06-19T05:38:09;97308.50;;;22.15;100.00
5284;BME280;15377;48.540;9.268;2023-06-19T05:40:34;97299.59;;;22.24;100.00
5284;BME280;15377;48.540;9.268;2023-06-19T05:43:00;97305.81;;;22.37;100.00
5284;BME280;15377;48.540;9.268;2023-06-19T05:45:25;97297.06;;;22.41;100.00
5284;BME280;15377;48.540;9.268;2023-06-19T05:47:50;97309.63;;;22.47;100.00
5284;BME280;15377;48.540;9.268;2023-06-19T05:50:16;97305.16;;;22.52;100.00
5284;BME280;15377;48.540;9.268;2023-06-19T05:52:41;97307.25;;;22.59;100.00
5284;BME280;15377;48.540;9.268;2023-06-19T05:55:09;97318.34;;;22.72;100.00
5284;BME280;15377;48.540;9.268;2023-06-19T05:57:35;97316.69;;;22.84;100.00
5284;BME280;15377;48.540;9.268;2023-06-19T06:00:00;97323.66;;;22.90;100.00
5284;BME280;15377;48.540;9.268;2023-06-19T06:02:25;97316.75;;;22.98;100.00
5284;BME280;15377;48.540;9.268;2023-06-19T06:04:53;97315.13;;;23.10;100.00
5284;BME280;15377;48.540;9.268;2023-06-19T06:07:18;97321.72;;;23.20;100.00
5284;BME280;15377;48.540;9.268;2023-06-19T06:09:44;97319.84;;;23.30;100.00
5284;BME280;15377;48.540;9.268;2023-06-19T06:12:09;97317.63;;;23.36;100.00
5284;BME280;15377;48.540;9.268;2023-06-19T06:14:34;97319.50;;;23.41;100.00
5284;BME280;15377;48.540;9.268;2023-06-19T06:17:00;97315.56;;;23.52;100.00
5284;BME280;15377;48.540;9.268;2023-06-19T06:19:25;97315.00;;;23.53;100.00
5284;BME280;15377;48.540;9.268;2023-06-19T06:21:51;97316.50;;;23.54;100.00
5284;BME280;15377;48.540;9.268;2023-06-19T06:24:16;97313.72;;;23.62;100.00
5284;BME280;15377;48.540;9.268;2023-06-19T06:26:42;97327.75;;;23.77;100.00
5284;BME280;15377;48.540;9.268;2023-06-19T06:29:08;97331.47;;;23.79;100.00
5284;BME280;15377;48.540;9.268;2023-06-19T06:31:34;97336.56;;;23.96;100.00
5284;BME280;15377;48.540;9.268;2023-06-19T06:34:00;97334.88;;;24.00;100.00
5284;BME280;15377;48.540;9.268;2023-06-19T06:36:25;97328.34;;;24.05;100.00
5284;BME280;15377;48.540;9.268;2023-06-19T06:38:51;97331.31;;;24.07;100.00
5284;BME280;15377;48.540;9.268;2023-06-19T06:41:16;97329.97;;;24.23;100.00
5284;BME280;15377;48.540;9.268;2023-06-19T06:43:42;97345.38;;;24.22;100.00
5284;BME280;15377;48.540;9.268;2023-06-19T06:46:08;97350.44;;;24.01;100.00
5284;BME280;15377;48.540;9.268;2023-06-19T06:48:33;97364.88;;;24.05;100.00
5284;BME280;15377;48.540;9.268;2023-06-19T06:50:59;97365.81;;;23.85;100.00
5284;BME280;15377;48.540;9.268;2023-06-19T06:53:27;97363.56;;;23.84;100.00
5284;BME280;15377;48.540;9.268;2023-06-19T06:55:58;97366.75;;;23.88;100.00
5284;BME280;15377;48.540;9.268;2023-06-19T06:58:24;97378.38;;;23.92;100.00
5284;BME280;15377;48.540;9.268;2023-06-19T07:00:50;97383.25;;;23.91;100.00
5284;BME280;15377;48.540;9.268;2023-06-19T07:03:16;97383.06;;;23.97;100.00
5284;BME280;15377;48.540;9.268;2023-06-19T07:05:42;97379.50;;;24.11;100.00
5284;BME280;15377;48.540;9.268;2023-06-19T07:08:07;97387.00;;;24.24;100.00
5284;BME280;15377;48.540;9.268;2023-06-19T07:10:32;97383.75;;;24.57;100.00
5284;BME280;15377;48.540;9.268;2023-06-19T07:12:58;97379.75;;;24.83;100.00
5284;BME280;15377;48.540;9.268;2023-06-19T07:15:23;97377.31;;;25.26;100.00
5284;BME280;15377;48.540;9.268;2023-06-19T07:17:48;97374.28;;;25.32;100.00
5284;BME280;15377;48.540;9.268;2023-06-19T07:20:14;97363.78;;;25.32;100.00
5284;BME280;15377;48.540;9.268;2023-06-19T07:22:40;97369.75;;;25.36;100.00
5284;BME280;15377;48.540;9.268;2023-06-19T07:25:06;97364.78;;;25.52;100.00
5284;BME280;15377;48.540;9.268;2023-06-19T07:27:32;97359.09;;;25.59;100.00
5284;BME280;15377;48.540;9.268;2023-06-19T07:29:57;97360.84;;;25.79;100.00
5284;BME280;15377;48.540;9.268;2023-06-19T07:32:23;97344.25;;;25.83;100.00
5284;BME280;15377;48.540;9.268;2023-06-19T07:34:48;97355.88;;;25.87;100.00
5284;BME280;15377;48.540;9.268;2023-06-19T07:37:14;97343.81;;;25.94;100.00
5284;BME280;15377;48.540;9.268;2023-06-19T07:39:46;97348.97;;;26.05;100.00
5284;BME280;15377;48.540;9.268;2023-06-19T07:42:13;97353.63;;;25.86;100.00
5284;BME280;15377;48.540;9.268;2023-06-19T07:44:39;97343.75;;;25.77;100.00
5284;BME280;15377;48.540;9.268;2023-06-19T07:47:05;97346.81;;;25.96;100.00
5284;BME280;15377;48.540;9.268;2023-06-19T07:49:30;97343.34;;;26.05;100.00
5284;BME280;15377;48.540;9.268;2023-06-19T07:51:56;97353.81;;;26.12;100.00
5284;BME280;15377;48.540;9.268;2023-06-19T07:54:21;97363.22;;;26.49;100.00
5284;BME280;15377;48.540;9.268;2023-06-19T07:56:46;97350.03;;;26.85;100.00
5284;BME280;15377;48.540;9.268;2023-06-19T07:59:12;97359.50;;;27.14;100.00
5284;BME280;15377;48.540;9.268;2023-06-19T08:01:39;97355.78;;;27.38;100.00
5284;BME280;15377;48.540;9.268;2023-06-19T08:04:04;97356.06;;;27.59;98.95
5284;BME280;15377;48.540;9.268;2023-06-19T08:06:29;97359.38;;;27.39;98.56
5284;BME280;15377;48.540;9.268;2023-06-19T08:08:55;97357.41;;;27.32;98.73
5284;BME280;15377;48.540;9.268;2023-06-19T08:11:20;97370.06;;;27.40;97.37
5284;BME280;15377;48.540;9.268;2023-06-19T08:13:45;97370.63;;;27.55;97.22
5284;BME280;15377;48.540;9.268;2023-06-19T08:16:11;97374.66;;;27.36;98.23
5284;BME280;15377;48.540;9.268;2023-06-19T08:18:36;97365.72;;;27.13;100.00
5284;BME280;15377;48.540;9.268;2023-06-19T08:21:01;97353.50;;;27.10;100.00
5284;BME280;15377;48.540;9.268;2023-06-19T08:23:27;97361.63;;;27.23;100.00
5284;BME280;15377;48.540;9.268;2023-06-19T08:25:52;97364.25;;;27.38;100.00
5284;BME280;15377;48.540;9.268;2023-06-19T08:28:18;97358.44;;;27.62;100.00
5284;BME280;15377;48.540;9.268;2023-06-19T08:30:45;97365.84;;;27.75;99.96
5284;BME280;15377;48.540;9.268;2023-06-19T08:33:10;97352.47;;;27.85;99.98
5284;BME280;15377;48.540;9.268;2023-06-19T08:35:37;97364.06;;;27.79;100.00
5284;BME280;15377;48.540;9.268;2023-06-19T08:38:03;97352.03;;;27.62;99.55
5284;BME280;15377;48.540;9.268;2023-06-19T08:40:28;97324.53;;;27.36;92.53
5284;BME280;15377;48.540;9.268;2023-06-19T08:42:54;97352.09;;;27.45;95.76
5284;BME280;15377;48.540;9.268;2023-06-19T08:45:21;97361.66;;;27.49;95.34
5284;BME280;15377;48.540;9.268;2023-06-19T08:47:47;97357.28;;;27.39;96.01
5284;BME280;15377;48.540;9.268;2023-06-19T08:50:13;97347.56;;;27.59;94.38
5284;BME280;15377;48.540;9.268;2023-06-19T08:52:39;97352.47;;;27.85;93.96
5284;BME280;15377;48.540;9.268;2023-06-19T08:55:04;97351.28;;;27.88;91.73
5284;BME280;15377;48.540;9.268;2023-06-19T08:57:35;97358.28;;;27.87;86.75
5284;BME280;15377;48.540;9.268;2023-06-19T09:00:01;97358.28;;;27.87;85.88
5284;BME280;15377;48.540;9.268;2023-06-19T09:02:36;97354.22;;;27.54;87.49
5284;BME280;15377;48.540;9.268;2023-06-19T09:05:15;97360.50;;;26.92;89.38
5284;BME280;15377;48.540;9.268;2023-06-19T09:07:43;97367.34;;;26.55;92.19
5284;BME280;15377;48.540;9.268;2023-06-19T09:10:18;97362.84;;;26.52;91.67
5284;BME280;15377;48.540;9.268;2023-06-19T09:13:04;97357.88;;;26.60;92.46
5284;BME280;15377;48.540;9.268;2023-06-19T09:15:35;97360.94;;;26.55;93.39
5284;BME280;15377;48.540;9.268;2023-06-19T09:20:28;97357.69;;;26.75;93.57
5284;BME280;15377;48.540;9.268;2023-06-19T09:22:58;97363.81;;;26.98;93.21
5284;BME280;15377;48.540;9.268;2023-06-19T09:25:23;97322.97;;;26.82;92.60
5284;BME280;15377;48.540;9.268;2023-06-19T09:27:50;97356.75;;;27.24;91.70
5284;BME280;15377;48.540;9.268;2023-06-19T09:30:15;97355.50;;;27.43;91.28
5284;BME280;15377;48.540;9.268;2023-06-19T09:32:41;97338.38;;;27.68;90.17
5284;BME280;15377;48.540;9.268;2023-06-19T09:35:07;97348.19;;;27.67;90.30
5284;BME280;15377;48.540;9.268;2023-06-19T09:37:32;97348.72;;;27.82;89.71
5284;BME280;15377;48.540;9.268;2023-06-19T09:40:00;97339.59;;;28.10;89.59
5284;BME280;15377;48.540;9.268;2023-06-19T09:42:33;97349.81;;;28.51;88.28
5284;BME280;15377;48.540;9.268;2023-06-19T09:45:09;97332.41;;;28.93;87.06
5284;BME280;15377;48.540;9.268;2023-06-19T09:47:38;97333.97;;;29.34;84.02
5284;BME280;15377;48.540;9.268;2023-06-19T09:50:04;97323.78;;;29.50;83.05
5284;BME280;15377;48.540;9.268;2023-06-19T09:52:31;97338.75;;;29.50;82.66
5284;BME280;15377;48.540;9.268;2023-06-19T09:54:57;97336.81;;;29.34;79.79
5284;BME280;15377;48.540;9.268;2023-06-19T09:57:25;97333.53;;;29.28;80.13
5284;BME280;15377;48.540;9.268;2023-06-19T09:59:53;97331.72;;;29.51;80.73
5284;BME280;15377;48.540;9.268;2023-06-19T10:02:20;97333.66;;;29.49;78.88
5284;BME280;15377;48.540;9.268;2023-06-19T10:04:54;97344.84;;;29.47;77.12
5284;BME280;15377;48.540;9.268;2023-06-19T10:07:25;97343.31;;;29.65;74.23
5284;BME280;15377;48.540;9.268;2023-06-19T10:12:43;97349.47;;;29.92;70.18
5284;BME280;15377;48.540;9.268;2023-06-19T10:15:23;97344.09;;;29.96;66.60
5284;BME280;15377;48.540;9.268;2023-06-19T10:17:58;97338.19;;;30.13;68.93
5284;BME280;15377;48.540;9.268;2023-06-19T10:20:32;97344.38;;;30.72;64.85
5284;BME280;15377;48.540;9.268;2023-06-19T10:25:24;97333.72;;;31.70;61.40
5284;BME280;15377;48.540;9.268;2023-06-19T10:27:52;97342.03;;;31.78;57.27
5284;BME280;15377;48.540;9.268;2023-06-19T10:30:18;97323.44;;;31.65;56.87
5284;BME280;15377;48.540;9.268;2023-06-19T10:32:45;97346.00;;;31.96;57.08
5284;BME280;15377;48.540;9.268;2023-06-19T10:35:15;97337.81;;;32.02;56.86
5284;BME280;15377;48.540;9.268;2023-06-19T10:37:42;97338.97;;;32.67;56.56
5284;BME280;15377;48.540;9.268;2023-06-19T10:40:09;97326.19;;;33.16;54.90
5284;BME280;15377;48.540;9.268;2023-06-19T10:42:39;97313.09;;;33.88;53.50
5284;BME280;15377;48.540;9.268;2023-06-19T10:45:07;97319.56;;;34.43;50.33
5284;BME280;15377;48.540;9.268;2023-06-19T10:47:34;97313.53;;;33.96;50.68
5284;BME280;15377;48.540;9.268;2023-06-19T10:49:59;97322.16;;;33.21;50.11
5284;BME280;15377;48.540;9.268;2023-06-19T10:52:25;97307.69;;;33.42;52.38
5284;BME280;15377;48.540;9.268;2023-06-19T10:54:56;97307.28;;;34.13;50.19
5284;BME280;15377;48.540;9.268;2023-06-19T10:57:29;97307.81;;;34.23;50.03
5284;BME280;15377;48.540;9.268;2023-06-19T10:59:55;97286.03;;;33.51;49.96
5284;BME280;15377;48.540;9.268;2023-06-19T11:02:21;97311.41;;;32.47;51.29
5284;BME280;15377;48.540;9.268;2023-06-19T11:04:47;97314.94;;;32.70;51.89
5284;BME280;15377;48.540;9.268;2023-06-19T11:07:12;97310.28;;;32.52;54.37
5284;BME280;15377;48.540;9.268;2023-06-19T11:09:37;97309.41;;;32.97;52.36
5284;BME280;15377;48.540;9.268;2023-06-19T11:12:03;97303.75;;;33.74;49.62
5284;BME280;15377;48.540;9.268;2023-06-19T11:14:31;97298.19;;;34.30;48.63
5284;BME280;15377;48.540;9.268;2023-06-19T11:16:57;97305.06;;;34.25;46.01
5284;BME280;15377;48.540;9.268;2023-06-19T11:19:29;97295.03;;;34.80;46.35
5284;BME280;15377;48.540;9.268;2023-06-19T11:21:57;97281.75;;;34.17;45.97
5284;BME280;15377;48.540;9.268;2023-06-19T11:24:22;97278.06;;;34.01;46.31
5284;BME280;15377;48.540;9.268;2023-06-19T11:26:50;97277.06;;;33.56;47.32
5284;BME280;15377;48.540;9.268;2023-06-19T11:29:19;97284.59;;;33.00;47.00
5284;BME280;15377;48.540;9.268;2023-06-19T11:31:46;97281.75;;;33.25;47.40
5284;BME280;15377;48.540;9.268;2023-06-19T11:34:12;97275.72;;;33.71;46.89
5284;BME280;15377;48.540;9.268;2023-06-19T11:36:38;97271.22;;;33.41;46.65
5284;BME280;15377;48.540;9.268;2023-06-19T11:39:12;97269.84;;;34.34;46.26
5284;BME280;15377;48.540;9.268;2023-06-19T11:41:41;97259.56;;;34.29;45.18
5284;BME280;15377;48.540;9.268;2023-06-19T11:44:08;97272.66;;;34.90;44.38
5284;BME280;15377;48.540;9.268;2023-06-19T11:46:36;97270.75;;;34.52;43.87
5284;BME280;15377;48.540;9.268;2023-06-19T11:49:17;97266.03;;;34.72;43.26
5284;BME280;15377;48.540;9.268;2023-06-19T11:51:44;97266.75;;;34.30;44.19
5284;BME280;15377;48.540;9.268;2023-06-19T11:54:11;97266.13;;;34.05;46.37
5284;BME280;15377;48.540;9.268;2023-06-19T11:56:38;97258.13;;;32.86;44.99
5284;BME280;15377;48.540;9.268;2023-06-19T11:59:04;97263.16;;;32.74;46.76
5284;BME280;15377;48.540;9.268;2023-06-19T12:01:31;97266.03;;;33.12;46.88
5284;BME280;15377;48.540;9.268;2023-06-19T12:03:57;97253.53;;;33.96;46.08
5284;BME280;15377;48.540;9.268;2023-06-19T12:06:23;97255.06;;;35.40;44.81
5284;BME280;15377;48.540;9.268;2023-06-19T12:08:48;97244.03;;;36.78;41.04
5284;BME280;15377;48.540;9.268;2023-06-19T12:11:13;97244.09;;;37.89;39.84
5284;BME280;15377;48.540;9.268;2023-06-19T12:13:42;97247.59;;;38.87;35.37
5284;BME280;15377;48.540;9.268;2023-06-19T12:16:09;97243.44;;;38.10;35.18
5284;BME280;15377;48.540;9.268;2023-06-19T12:18:35;97235.94;;;38.83;35.17
5284;BME280;15377;48.540;9.268;2023-06-19T12:21:00;97247.84;;;38.52;32.91
5284;BME280;15377;48.540;9.268;2023-06-19T12:23:26;97250.22;;;38.38;33.70
5284;BME280;15377;48.540;9.268;2023-06-19T12:25:51;97240.94;;;38.20;33.06
5284;BME280;15377;48.540;9.268;2023-06-19T12:28:17;97241.88;;;38.67;33.05
5284;BME280;15377;48.540;9.268;2023-06-19T12:30:44;97232.69;;;39.16;32.65
5284;BME280;15377;48.540;9.268;2023-06-19T12:33:10;97228.91;;;39.33;31.17
5284;BME280;15377;48.540;9.268;2023-06-19T12:35:39;97233.06;;;39.75;30.69
5284;BME280;15377;48.540;9.268;2023-06-19T12:38:05;97230.25;;;39.77;29.48
5284;BME280;15377;48.540;9.268;2023-06-19T12:40:30;97229.63;;;39.80;28.74
5284;BME280;15377;48.540;9.268;2023-06-19T12:42:55;97235.91;;;40.24;29.49
5284;BME280;15377;48.540;9.268;2023-06-19T12:45:21;97223.47;;;39.92;28.87
5284;BME280;15377;48.540;9.268;2023-06-19T12:47:46;97219.06;;;39.89;28.81
5284;BME280;15377;48.540;9.268;2023-06-19T12:50:11;97215.97;;;39.10;29.77
5284;BME280;15377;48.540;9.268;2023-06-19T12:52:37;97225.16;;;37.82;31.25
5284;BME280;15377;48.540;9.268;2023-06-19T12:55:02;97226.66;;;37.46;31.96
5284;BME280;15377;48.540;9.268;2023-06-19T12:57:28;97218.03;;;37.46;32.53
5284;BME280;15377;48.540;9.268;2023-06-19T12:59:53;97222.44;;;37.66;32.62
5284;BME280;15377;48.540;9.268;2023-06-19T13:02:18;97210.81;;;38.64;31.65
5284;BME280;15377;48.540;9.268;2023-06-19T13:04:44;97202.09;;;39.26;30.60
5284;BME280;15377;48.540;9.268;2023-06-19T13:07:09;97204.47;;;38.89;30.18
5284;BME280;15377;48.540;9.268;2023-06-19T13:09:34;97217.59;;;39.39;29.67